createdAt,value
2016-09-28T00:00:02.947Z,0
2016-09-28T00:01:13.238Z,0
2016-09-28T00:02:23.224Z,0
2016-09-28T00:03:33.518Z,0
2016-09-28T00:04:43.541Z,0
2016-09-28T00:05:53.844Z,0
2016-09-28T00:07:04.173Z,0
2016-09-28T00:08:13.530Z,0
2016-09-28T00:09:23.209Z,0
2016-09-28T00:10:32.905Z,0
2016-09-28T00:11:42.573Z,0
2016-09-28T00:12:52.247Z,0
2016-09-28T00:14:02.541Z,0
2016-09-28T00:15:12.849Z,0
2016-09-28T00:16:22.832Z,0
2016-09-28T00:17:32.847Z,0
2016-09-28T00:18:42.827Z,0
2016-09-28T00:19:53.104Z,0
2016-09-28T00:21:02.769Z,0
2016-09-28T00:22:12.757Z,0
2016-09-28T00:23:23.052Z,0
2016-09-28T00:24:33.040Z,0
2016-09-28T00:25:43.018Z,0
2016-09-28T00:26:53.357Z,0
2016-09-28T00:28:03.655Z,0
2016-09-28T00:29:13.644Z,0
2016-09-28T00:30:23.963Z,0
2016-09-28T00:31:33.950Z,0
2016-09-28T00:32:43.617Z,0
2016-09-28T00:33:53.293Z,0
2016-09-28T00:35:02.964Z,0
2016-09-28T00:36:13.251Z,0
2016-09-28T00:37:23.244Z,0
2016-09-28T00:38:33.229Z,0
2016-09-28T00:39:43.526Z,0
2016-09-28T00:40:53.202Z,0
2016-09-28T00:42:03.488Z,0
2016-09-28T00:43:12.862Z,0
2016-09-28T00:44:23.167Z,0
2016-09-28T00:45:33.145Z,0
2016-09-28T00:46:43.438Z,0
2016-09-28T00:47:53.417Z,0
2016-09-28T00:49:03.705Z,0
2016-09-28T00:50:13.694Z,0
2016-09-28T00:51:23.975Z,0
2016-09-28T00:52:33.952Z,0
2016-09-28T00:53:43.941Z,0
2016-09-28T00:54:54.236Z,0
2016-09-28T00:56:04.204Z,0
2016-09-28T00:57:14.204Z,0
2016-09-28T00:58:24.511Z,0
2016-09-28T00:59:34.480Z,0
2016-09-28T01:00:44.456Z,0
2016-09-28T01:01:54.739Z,0
2016-09-28T01:03:05.035Z,0
2016-09-28T01:04:15.323Z,0
2016-09-28T01:05:25.631Z,0
2016-09-28T01:06:35.924Z,0
2016-09-28T01:07:45.911Z,0
2016-09-28T01:08:56.198Z,0
2016-09-28T01:10:06.491Z,0
2016-09-28T01:11:16.776Z,0
2016-09-28T01:12:26.749Z,0
2016-09-28T01:13:36.728Z,0
2016-09-28T01:14:46.695Z,0
2016-09-28T01:15:56.693Z,0
2016-09-28T01:17:06.669Z,0
2016-09-28T01:18:16.972Z,0
2016-09-28T01:19:27.257Z,0
2016-09-28T01:20:37.551Z,0
2016-09-28T01:21:47.841Z,0
2016-09-28T01:22:58.128Z,0
2016-09-28T01:24:08.419Z,0
2016-09-28T01:25:18.400Z,0
2016-09-28T01:26:28.376Z,0
2016-09-28T01:27:37.726Z,0
2016-09-28T01:28:47.705Z,0
2016-09-28T01:29:57.683Z,0
2016-09-28T01:31:07.658Z,0
2016-09-28T01:32:17.640Z,0
2016-09-28T01:33:27.926Z,0
2016-09-28T01:34:37.892Z,0
2016-09-28T01:35:47.869Z,0
2016-09-28T01:36:58.186Z,0
2016-09-28T01:38:07.534Z,0
2016-09-28T01:39:17.500Z,0
2016-09-28T01:40:27.161Z,0
2016-09-28T01:41:37.128Z,0
2016-09-28T01:42:47.415Z,0
2016-09-28T01:43:57.392Z,0
2016-09-28T01:45:07.678Z,0
2016-09-28T01:46:17.949Z,0
2016-09-28T01:47:27.616Z,0
2016-09-28T01:48:36.977Z,0
2016-09-28T01:49:46.650Z,0
2016-09-28T01:50:56.336Z,0
2016-09-28T01:52:06.613Z,0
2016-09-28T01:53:16.909Z,0
2016-09-28T01:54:27.192Z,0
2016-09-28T01:55:37.158Z,0
2016-09-28T01:56:47.130Z,0
2016-09-28T01:57:57.415Z,0
2016-09-28T01:59:07.687Z,0
2016-09-28T02:00:17.354Z,0
2016-09-28T02:01:27.358Z,0
2016-09-28T02:02:37.332Z,0
2016-09-28T02:03:47.314Z,0
2016-09-28T02:04:57.285Z,0
2016-09-28T02:06:07.269Z,0
2016-09-28T02:07:17.550Z,0
2016-09-28T02:08:27.523Z,0
2016-09-28T02:09:37.512Z,0
2016-09-28T02:10:47.792Z,0
2016-09-28T02:11:58.076Z,0
2016-09-28T02:13:07.736Z,0
2016-09-28T02:14:17.713Z,0
2016-09-28T02:15:27.083Z,0
2016-09-28T02:16:37.372Z,0
2016-09-28T02:17:47.685Z,0
2016-09-28T02:18:57.996Z,0
2016-09-28T02:20:07.987Z,0
2016-09-28T02:21:17.665Z,0
2016-09-28T02:22:27.951Z,0
2016-09-28T02:23:37.942Z,0
2016-09-28T02:24:47.919Z,0
2016-09-28T02:25:58.195Z,0
2016-09-28T02:27:08.193Z,0
2016-09-28T02:28:18.173Z,0
2016-09-28T02:29:28.151Z,0
2016-09-28T02:30:38.138Z,0
2016-09-28T02:31:48.449Z,0
2016-09-28T02:32:58.418Z,0
2016-09-28T02:34:08.721Z,0
2016-09-28T02:35:18.710Z,0
2016-09-28T02:36:29.011Z,0
2016-09-28T02:37:38.990Z,0
2016-09-28T02:38:48.965Z,0
2016-09-28T02:39:59.248Z,0
2016-09-28T02:41:09.225Z,0
2016-09-28T02:42:19.518Z,0
2016-09-28T02:43:29.797Z,0
2016-09-28T02:44:39.783Z,0
2016-09-28T02:45:49.451Z,0
2016-09-28T02:46:59.728Z,0
2016-09-28T02:48:10.024Z,0
2016-09-28T02:49:20.021Z,0
2016-09-28T02:50:30.319Z,0
2016-09-28T02:51:40.604Z,0
2016-09-28T02:52:50.889Z,0
2016-09-28T02:54:01.177Z,0
2016-09-28T02:55:11.148Z,0
2016-09-28T02:56:21.428Z,0
2016-09-28T02:57:31.719Z,0
2016-09-28T02:58:42.013Z,0
2016-09-28T02:59:52.291Z,0
2016-09-28T03:01:02.275Z,0
2016-09-28T03:32:49.604Z,0
2016-09-28T03:33:59.567Z,0
2016-09-28T03:35:09.523Z,0
2016-09-28T03:36:19.500Z,0
2016-09-28T03:37:29.163Z,0
2016-09-28T03:38:39.148Z,0
2016-09-28T03:39:49.126Z,0
2016-09-28T03:40:59.092Z,0
2016-09-28T03:42:09.077Z,0
2016-09-28T03:43:18.739Z,0
2016-09-28T03:44:28.717Z,0
2016-09-28T03:45:38.993Z,0
2016-09-28T03:46:49.300Z,0
2016-09-28T03:47:58.983Z,0
2016-09-28T03:49:08.335Z,0
2016-09-28T03:50:18.617Z,0
2016-09-28T03:51:28.587Z,0
2016-09-28T03:52:38.274Z,0
2016-09-28T03:53:48.550Z,0
2016-09-28T03:54:58.526Z,0
2016-09-28T03:56:08.819Z,0
2016-09-28T03:57:18.481Z,0
2016-09-28T03:58:28.449Z,0
2016-09-28T03:59:38.742Z,0
2016-09-28T04:00:49.031Z,0
2016-09-28T04:01:59.012Z,0
2016-09-28T04:03:08.993Z,0
2016-09-28T04:04:18.660Z,0
2016-09-28T04:05:28.643Z,0
2016-09-28T04:06:38.622Z,0
2016-09-28T04:07:48.900Z,0
2016-09-28T04:08:59.208Z,0
2016-09-28T04:10:09.498Z,0
2016-09-28T04:11:19.486Z,0
2016-09-28T04:12:29.766Z,0
2016-09-28T04:13:39.747Z,0
2016-09-28T04:14:49.726Z,0
2016-09-28T04:15:58.762Z,0
2016-09-28T04:17:08.736Z,0
2016-09-28T04:18:19.036Z,0
2016-09-28T04:19:29.324Z,0
2016-09-28T04:20:39.308Z,0
2016-09-28T04:21:49.306Z,0
2016-09-28T04:22:59.582Z,0
2016-09-28T04:24:09.566Z,0
2016-09-28T04:25:19.544Z,0
2016-09-28T04:26:29.214Z,0
2016-09-28T04:27:38.872Z,0
2016-09-28T04:28:48.560Z,0
2016-09-28T04:29:58.838Z,0
2016-09-28T04:31:08.819Z,0
2016-09-28T04:32:18.477Z,0
2016-09-28T04:33:28.763Z,0
2016-09-28T04:34:38.730Z,0
2016-09-28T04:35:49.012Z,0
2016-09-28T04:36:59.004Z,0
2016-09-28T04:38:08.969Z,0
2016-09-28T04:39:18.952Z,0
2016-09-28T04:40:29.239Z,0
2016-09-28T04:41:39.530Z,0
2016-09-28T04:42:49.820Z,0
2016-09-28T04:43:59.788Z,0
2016-09-28T04:45:10.092Z,0
2016-09-28T04:46:19.772Z,0
2016-09-28T04:47:30.058Z,0
2016-09-28T04:48:40.046Z,5
2016-09-28T04:49:49.717Z,5
2016-09-28T04:50:59.684Z,5
2016-09-28T04:52:09.669Z,5
2016-09-28T04:53:19.975Z,5
2016-09-28T04:54:29.659Z,5
2016-09-28T04:55:39.941Z,10
2016-09-28T04:56:50.235Z,10
2016-09-28T04:58:00.513Z,10
2016-09-28T04:59:10.515Z,10
2016-09-28T05:00:20.807Z,10
2016-09-28T05:01:30.789Z,15
2016-09-28T05:02:41.075Z,15
2016-09-28T05:03:51.367Z,15
2016-09-28T05:05:01.681Z,15
2016-09-28T05:06:11.353Z,20
2016-09-28T05:07:20.710Z,20
2016-09-28T05:08:30.691Z,20
2016-09-28T05:09:40.988Z,20
2016-09-28T05:10:50.962Z,25
2016-09-28T05:12:00.963Z,25
2016-09-28T05:13:11.253Z,30
2016-09-28T05:14:21.222Z,30
2016-09-28T05:15:31.199Z,30
2016-09-28T05:16:41.475Z,35
2016-09-28T05:17:51.756Z,35
2016-09-28T05:19:01.422Z,35
2016-09-28T05:20:11.403Z,35
2016-09-28T05:21:21.699Z,40
2016-09-28T05:22:31.702Z,40
2016-09-28T05:23:41.641Z,40
2016-09-28T05:24:51.602Z,40
2016-09-28T05:26:01.264Z,40
2016-09-28T05:27:11.241Z,40
2016-09-28T05:28:21.227Z,45
2016-09-28T05:29:31.515Z,45
2016-09-28T05:30:41.489Z,50
2016-09-28T05:31:51.177Z,50
2016-09-28T05:33:01.463Z,50
2016-09-28T05:34:11.746Z,50
2016-09-28T05:35:22.033Z,55
2016-09-28T05:36:32.318Z,55
2016-09-28T05:37:42.325Z,55
2016-09-28T05:38:52.612Z,55
2016-09-28T05:40:02.598Z,55
2016-09-28T05:41:12.566Z,60
2016-09-28T05:42:22.843Z,60
2016-09-28T05:43:32.526Z,60
2016-09-28T05:44:42.805Z,60
2016-09-28T05:45:53.093Z,65
2016-09-28T05:47:03.065Z,65
2016-09-28T05:48:13.360Z,65
2016-09-28T05:49:23.653Z,70
2016-09-28T05:50:33.939Z,70
2016-09-28T05:51:44.213Z,75
2016-09-28T05:52:54.504Z,75
2016-09-28T05:54:04.791Z,75
2016-09-28T05:55:14.783Z,75
2016-09-28T05:56:24.763Z,80
2016-09-28T05:57:34.754Z,80
2016-09-28T05:58:45.041Z,80
2016-09-28T05:59:55.014Z,80
2016-09-28T06:01:04.997Z,85
2016-09-28T06:02:14.971Z,85
2016-09-28T06:03:25.258Z,90
2016-09-28T06:04:34.929Z,90
2016-09-28T06:05:45.205Z,90
2016-09-28T06:06:55.508Z,95
2016-09-28T06:08:05.489Z,95
2016-09-28T06:09:15.468Z,95
2016-09-28T06:10:25.441Z,100
2016-09-28T06:11:35.730Z,100
2016-09-28T06:12:45.392Z,100
2016-09-28T06:13:55.369Z,105
2016-09-28T06:15:05.059Z,105
2016-09-28T06:16:15.345Z,105
2016-09-28T06:17:25.331Z,105
2016-09-28T06:18:35.623Z,105
2016-09-28T06:19:45.900Z,110
2016-09-28T06:20:56.183Z,110
2016-09-28T06:22:05.844Z,115
2016-09-28T06:23:15.517Z,115
2016-09-28T06:24:25.489Z,115
2016-09-28T06:25:35.183Z,115
2016-09-28T06:26:45.153Z,120
2016-09-28T06:27:55.126Z,120
2016-09-28T06:29:04.488Z,120
2016-09-28T06:30:14.456Z,120
2016-09-28T06:31:24.139Z,125
2016-09-28T06:32:34.424Z,125
2016-09-28T06:33:44.702Z,130
2016-09-28T06:34:54.057Z,130
2016-09-28T06:36:04.047Z,135
2016-09-28T06:37:14.353Z,135
2016-09-28T06:38:24.651Z,140
2016-09-28T06:39:34.640Z,140
2016-09-28T06:40:44.628Z,140
2016-09-28T06:41:54.609Z,145
2016-09-28T06:43:04.591Z,150
2016-09-28T06:44:14.893Z,150
2016-09-28T06:45:24.873Z,150
2016-09-28T06:46:35.188Z,145
2016-09-28T06:47:45.484Z,140
2016-09-28T06:48:55.463Z,145
2016-09-28T06:50:05.781Z,150
2016-09-28T06:51:16.072Z,145
2016-09-28T06:52:26.360Z,135
2016-09-28T06:53:36.342Z,140
2016-09-28T06:54:45.712Z,145
2016-09-28T06:55:55.393Z,145
2016-09-28T06:57:05.057Z,150
2016-09-28T06:58:15.367Z,150
2016-09-28T06:59:25.365Z,160
2016-09-28T07:00:35.665Z,155
2016-09-28T07:01:45.654Z,165
2016-09-28T07:02:55.925Z,160
2016-09-28T07:04:05.906Z,170
2016-09-28T07:05:16.203Z,165
2016-09-28T07:06:26.506Z,165
2016-09-28T07:07:36.205Z,160
2016-09-28T07:08:46.509Z,150
2016-09-28T07:09:56.496Z,155
2016-09-28T07:11:06.481Z,160
2016-09-28T07:12:16.468Z,165
2016-09-28T07:13:26.451Z,165
2016-09-28T07:14:36.441Z,165
2016-09-28T07:15:46.419Z,160
2016-09-28T07:16:56.096Z,155
2016-09-28T07:18:05.771Z,155
2016-09-28T07:19:16.063Z,150
2016-09-28T07:20:26.049Z,155
2016-09-28T07:21:36.347Z,160
2016-09-28T07:22:46.324Z,175
2016-09-28T07:23:56.296Z,175
2016-09-28T07:25:06.576Z,180
2016-09-28T07:26:16.243Z,175
2016-09-28T07:27:26.535Z,180
2016-09-28T07:28:36.521Z,185
2016-09-28T07:29:46.835Z,190
2016-09-28T07:30:56.211Z,195
2016-09-28T07:32:06.191Z,195
2016-09-28T07:33:16.176Z,205
2016-09-28T07:34:25.561Z,200
2016-09-28T07:35:35.536Z,205
2016-09-28T07:36:45.505Z,195
2016-09-28T07:37:55.786Z,205
2016-09-28T07:39:05.496Z,210
2016-09-28T07:40:15.483Z,215
2016-09-28T07:41:25.501Z,205
2016-09-28T07:42:35.170Z,195
2016-09-28T07:43:45.164Z,205
2016-09-28T07:44:55.481Z,205
2016-09-28T07:46:05.466Z,215
2016-09-28T07:47:15.463Z,220
2016-09-28T07:48:25.753Z,220
2016-09-28T07:49:36.043Z,225
2016-09-28T07:50:45.725Z,225
2016-09-28T07:51:55.406Z,225
2016-09-28T07:53:05.081Z,230
2016-09-28T07:54:15.379Z,225
2016-09-28T07:55:25.682Z,225
2016-09-28T07:56:35.982Z,220
2016-09-28T07:57:45.649Z,220
2016-09-28T07:58:55.936Z,220
2016-09-28T08:00:05.614Z,220
2016-09-28T08:01:15.605Z,215
2016-09-28T08:02:25.907Z,210
2016-09-28T08:03:36.219Z,205
2016-09-28T08:04:46.205Z,200
2016-09-28T08:05:56.202Z,195
2016-09-28T08:07:06.506Z,195
2016-09-28T08:08:16.501Z,195
2016-09-28T08:09:26.172Z,195
2016-09-28T08:10:35.855Z,185
2016-09-28T08:11:45.845Z,190
2016-09-28T08:12:56.138Z,195
2016-09-28T08:14:06.113Z,205
2016-09-28T08:15:16.105Z,190
2016-09-28T08:16:26.092Z,195
2016-09-28T08:17:36.076Z,190
2016-09-28T08:18:46.380Z,185
2016-09-28T08:19:56.064Z,180
2016-09-28T08:21:06.061Z,180
2016-09-28T08:22:16.356Z,190
2016-09-28T08:23:26.663Z,190
2016-09-28T08:24:36.640Z,195
2016-09-28T08:25:46.941Z,195
2016-09-28T08:26:56.614Z,210
2016-09-28T08:28:06.598Z,210
2016-09-28T08:29:16.891Z,210
2016-09-28T08:30:26.563Z,205
2016-09-28T08:31:35.928Z,210
2016-09-28T08:32:45.912Z,215
2016-09-28T08:33:55.893Z,210
2016-09-28T08:35:06.189Z,210
2016-09-28T08:36:16.504Z,210
2016-09-28T08:37:26.490Z,220
2016-09-28T08:38:36.785Z,230
2016-09-28T08:39:47.064Z,225
2016-09-28T08:40:57.380Z,230
2016-09-28T08:42:07.372Z,220
2016-09-28T08:43:17.667Z,200
2016-09-28T08:44:27.048Z,195
2016-09-28T08:45:37.028Z,230
2016-09-28T08:46:47.014Z,235
2016-09-28T08:47:57.038Z,235
2016-09-28T08:49:07.020Z,235
2016-09-28T08:50:16.386Z,235
2016-09-28T08:51:26.398Z,245
2016-09-28T08:52:36.381Z,255
2016-09-28T08:53:46.092Z,255
2016-09-28T08:54:56.373Z,255
2016-09-28T08:56:05.758Z,245
2016-09-28T08:57:15.452Z,240
2016-09-28T08:58:25.756Z,245
2016-09-28T08:59:36.042Z,255
2016-09-28T09:00:46.034Z,255
2016-09-28T09:01:56.345Z,245
2016-09-28T09:03:06.640Z,265
2016-09-28T09:04:16.311Z,255
2016-09-28T09:05:25.979Z,265
2016-09-28T09:06:35.670Z,265
2016-09-28T09:07:45.360Z,270
2016-09-28T09:08:55.333Z,265
2016-09-28T09:10:05.006Z,280
2016-09-28T09:11:15.305Z,280
2016-09-28T09:12:25.533Z,300
2016-09-28T09:13:35.531Z,295
2016-09-28T09:14:45.224Z,290
2016-09-28T09:15:55.505Z,275
2016-09-28T09:17:05.496Z,275
2016-09-28T09:18:15.789Z,295
2016-09-28T09:19:25.169Z,300
2016-09-28T09:20:34.564Z,340
2016-09-28T09:21:44.880Z,340
2016-09-28T09:22:54.885Z,350
2016-09-28T09:24:04.557Z,350
2016-09-28T09:25:14.548Z,365
2016-09-28T09:26:24.530Z,345
2016-09-28T09:27:34.521Z,340
2016-09-28T09:28:44.812Z,320
2016-09-28T09:29:55.114Z,315
2016-09-28T09:31:05.427Z,305
2016-09-28T09:32:15.422Z,285
2016-09-28T09:33:25.724Z,285
2016-09-28T09:34:36.022Z,270
2016-09-28T09:35:46.327Z,265
2016-09-28T09:36:56.610Z,265
2016-09-28T09:38:06.902Z,265
2016-09-28T09:39:16.590Z,265
2016-09-28T09:40:26.897Z,260
2016-09-28T09:41:36.875Z,260
2016-09-28T09:42:47.191Z,265
2016-09-28T09:43:57.485Z,270
2016-09-28T09:45:07.163Z,260
2016-09-28T09:46:17.159Z,270
2016-09-28T09:47:27.131Z,270
2016-09-28T09:48:36.823Z,270
2016-09-28T09:49:47.125Z,270
2016-09-28T09:50:57.103Z,275
2016-09-28T09:52:07.094Z,270
2016-09-28T09:53:16.145Z,255
2016-09-28T09:54:26.445Z,250
2016-09-28T09:55:36.760Z,250
2016-09-28T09:56:47.069Z,255
2016-09-28T09:57:57.371Z,260
2016-09-28T09:59:07.353Z,245
2016-09-28T10:00:17.381Z,240
2016-09-28T10:01:27.376Z,235
2016-09-28T10:02:37.683Z,230
2016-09-28T10:03:47.974Z,230
2016-09-28T10:04:57.653Z,230
2016-09-28T10:06:07.659Z,235
2016-09-28T10:07:17.969Z,235
2016-09-28T10:08:27.677Z,255
2016-09-28T10:09:37.990Z,275
2016-09-28T10:10:48.536Z,280
2016-09-28T10:11:58.501Z,255
2016-09-28T10:13:08.809Z,270
2016-09-28T10:14:18.848Z,250
2016-09-28T10:15:29.172Z,285
2016-09-28T10:16:39.487Z,250
2016-09-28T10:17:49.818Z,255
2016-09-28T10:19:00.157Z,265
2016-09-28T10:20:10.180Z,275
2016-09-28T10:21:20.206Z,280
2016-09-28T10:22:30.517Z,285
2016-09-28T10:23:41.053Z,270
2016-09-28T10:24:50.453Z,300
2016-09-28T10:26:00.758Z,315
2016-09-28T10:27:10.471Z,300
2016-09-28T10:28:20.467Z,305
2016-09-28T10:29:30.778Z,350
2016-09-28T10:30:40.455Z,325
2016-09-28T10:31:50.151Z,295
2016-09-28T10:33:00.147Z,285
2016-09-28T10:34:10.154Z,320
2016-09-28T10:35:20.155Z,285
2016-09-28T10:36:30.166Z,270
2016-09-28T10:37:40.164Z,265
2016-09-28T10:38:50.178Z,255
2016-09-28T10:40:00.171Z,240
2016-09-28T10:41:10.164Z,240
2016-09-28T10:42:20.153Z,230
2016-09-28T10:43:30.238Z,220
2016-09-28T10:44:40.550Z,220
2016-09-28T10:45:50.866Z,220
2016-09-28T10:47:00.859Z,240
2016-09-28T10:48:10.864Z,250
2016-09-28T10:49:20.586Z,255
2016-09-28T10:50:30.593Z,255
2016-09-28T10:51:40.588Z,215
2016-09-28T10:52:50.597Z,195
2016-09-28T10:54:00.584Z,185
2016-09-28T10:55:10.577Z,180
2016-09-28T10:56:20.868Z,185
2016-09-28T10:57:30.865Z,220
2016-09-28T10:58:40.860Z,215
2016-09-28T10:59:51.173Z,160
2016-09-28T11:01:01.164Z,170
2016-09-28T11:02:11.165Z,210
2016-09-28T11:03:21.166Z,220
2016-09-28T11:04:31.191Z,235
2016-09-28T11:05:41.521Z,260
2016-09-28T11:06:51.852Z,265
2016-09-28T11:08:01.854Z,285
2016-09-28T11:09:12.157Z,300
2016-09-28T11:10:22.485Z,290
2016-09-28T11:11:32.801Z,305
2016-09-28T11:12:43.123Z,300
2016-09-28T11:13:53.130Z,310
2016-09-28T11:15:02.972Z,305
2016-09-28T11:16:13.523Z,310
2016-09-28T11:17:23.897Z,300
2016-09-28T11:18:34.239Z,290
2016-09-28T11:19:44.585Z,260
2016-09-28T11:20:54.635Z,270
2016-09-28T11:22:04.983Z,250
2016-09-28T11:23:15.314Z,220
2016-09-28T11:24:25.320Z,260
2016-09-28T11:25:35.310Z,245
2016-09-28T11:26:44.990Z,230
2016-09-28T11:27:54.987Z,265
2016-09-28T11:29:04.975Z,265
2016-09-28T11:30:15.283Z,305
2016-09-28T11:31:25.278Z,305
2016-09-28T11:32:35.266Z,305
2016-09-28T11:33:45.496Z,300
2016-09-28T11:34:55.499Z,310
2016-09-28T11:36:05.500Z,315
2016-09-28T11:37:15.811Z,315
2016-09-28T11:38:25.500Z,305
2016-09-28T11:39:35.819Z,305
2016-09-28T11:40:45.520Z,315
2016-09-28T11:41:55.509Z,315
2016-09-28T11:43:05.830Z,305
2016-09-28T11:44:15.214Z,295
2016-09-28T11:45:25.227Z,280
2016-09-28T11:46:35.527Z,275
2016-09-28T11:47:45.199Z,280
2016-09-28T11:48:55.520Z,265
2016-09-28T11:50:05.825Z,275
2016-09-28T11:51:15.849Z,275
2016-09-28T11:52:26.155Z,275
2016-09-28T11:53:36.150Z,255
2016-09-28T11:54:46.471Z,235
2016-09-28T11:55:56.781Z,230
2016-09-28T11:57:06.465Z,190
2016-09-28T11:58:16.459Z,180
2016-09-28T11:59:26.438Z,150
2016-09-28T12:00:36.740Z,135
2016-09-28T12:01:47.037Z,120
2016-09-28T12:02:57.318Z,110
2016-09-28T12:04:07.307Z,130
2016-09-28T12:05:17.629Z,170
2016-09-28T12:06:27.941Z,225
2016-09-28T12:07:37.916Z,255
2016-09-28T12:08:48.242Z,270
2016-09-28T12:09:58.226Z,270
2016-09-28T12:11:08.221Z,280
2016-09-28T12:12:17.911Z,285
2016-09-28T12:13:27.918Z,285
2016-09-28T12:14:37.281Z,280
2016-09-28T12:15:47.268Z,285
2016-09-28T12:16:57.555Z,280
2016-09-28T12:18:07.541Z,290
2016-09-28T12:19:17.860Z,290
2016-09-28T12:20:27.874Z,290
2016-09-28T12:21:38.166Z,295
2016-09-28T12:22:48.149Z,295
2016-09-28T12:23:58.445Z,295
2016-09-28T12:25:08.133Z,300
2016-09-28T12:26:17.532Z,305
2016-09-28T12:27:27.840Z,305
2016-09-28T12:28:37.840Z,305
2016-09-28T12:29:47.873Z,305
2016-09-28T12:30:58.169Z,305
2016-09-28T12:32:08.162Z,300
2016-09-28T12:33:17.855Z,300
2016-09-28T12:34:27.540Z,290
2016-09-28T12:35:37.557Z,285
2016-09-28T12:36:47.874Z,275
2016-09-28T12:37:57.554Z,270
2016-09-28T12:39:07.861Z,270
2016-09-28T12:40:18.167Z,275
2016-09-28T12:41:28.466Z,275
2016-09-28T12:42:38.802Z,280
2016-09-28T12:43:49.115Z,275
2016-09-28T12:44:58.810Z,280
2016-09-28T12:46:08.485Z,260
2016-09-28T12:47:18.481Z,255
2016-09-28T12:48:28.785Z,260
2016-09-28T12:49:38.777Z,255
2016-09-28T12:50:48.455Z,235
2016-09-28T12:51:58.457Z,225
2016-09-28T12:53:08.449Z,250
2016-09-28T12:54:18.459Z,270
2016-09-28T12:55:28.760Z,255
2016-09-28T12:56:38.787Z,250
2016-09-28T12:57:49.109Z,245
2016-09-28T12:58:59.416Z,245
2016-09-28T13:00:09.412Z,265
2016-09-28T13:01:19.404Z,275
2016-09-28T13:02:29.706Z,265
2016-09-28T13:03:39.702Z,280
2016-09-28T13:04:49.998Z,280
2016-09-28T13:06:00.311Z,270
2016-09-28T13:07:10.642Z,255
2016-09-28T13:08:20.619Z,250
2016-09-28T13:09:30.306Z,245
2016-09-28T13:10:40.639Z,265
2016-09-28T13:11:50.639Z,270
2016-09-28T13:13:00.940Z,255
2016-09-28T13:14:11.252Z,255
2016-09-28T13:15:21.546Z,255
2016-09-28T13:16:31.236Z,260
2016-09-28T13:17:41.522Z,255
2016-09-28T13:18:51.515Z,240
2016-09-28T13:20:01.520Z,230
2016-09-28T13:21:11.735Z,225
2016-09-28T13:22:21.720Z,230
2016-09-28T13:23:31.704Z,235
2016-09-28T13:24:41.692Z,235
2016-09-28T13:25:51.078Z,245
2016-09-28T13:27:01.372Z,255
2016-09-28T13:28:11.677Z,245
2016-09-28T13:29:21.966Z,240
2016-09-28T13:30:31.970Z,240
2016-09-28T13:31:41.968Z,240
2016-09-28T13:32:52.280Z,245
2016-09-28T13:34:02.276Z,250
2016-09-28T13:35:12.309Z,240
2016-09-28T13:36:22.320Z,235
2016-09-28T13:37:32.307Z,225
2016-09-28T13:38:42.605Z,240
2016-09-28T13:39:52.880Z,235
2016-09-28T13:41:02.568Z,240
2016-09-28T13:42:12.567Z,245
2016-09-28T13:43:22.870Z,245
2016-09-28T13:44:32.853Z,240
2016-09-28T13:45:43.180Z,235
2016-09-28T13:46:53.481Z,240
2016-09-28T13:48:03.792Z,235
2016-09-28T13:49:13.788Z,220
2016-09-28T13:50:23.776Z,225
2016-09-28T13:51:33.761Z,225
2016-09-28T13:52:44.108Z,225
2016-09-28T13:53:54.417Z,220
2016-09-28T13:55:04.106Z,220
2016-09-28T13:56:14.095Z,215
2016-09-28T13:57:24.111Z,215
2016-09-28T13:58:34.107Z,210
2016-09-28T13:59:44.414Z,205
2016-09-28T14:00:54.422Z,205
2016-09-28T14:02:04.424Z,200
2016-09-28T14:03:14.429Z,195
2016-09-28T14:04:24.715Z,195
2016-09-28T14:05:34.714Z,190
2016-09-28T14:06:45.018Z,185
2016-09-28T14:07:55.347Z,185
2016-09-28T14:09:05.345Z,185
2016-09-28T14:10:15.360Z,185
2016-09-28T14:11:25.679Z,185
2016-09-28T14:12:35.991Z,185
2016-09-28T14:13:45.664Z,185
2016-09-28T14:14:55.363Z,180
2016-09-28T14:16:05.374Z,180
2016-09-28T14:17:15.069Z,175
2016-09-28T14:18:25.357Z,175
2016-09-28T14:19:35.704Z,170
2016-09-28T14:20:45.686Z,170
2016-09-28T14:21:55.668Z,170
2016-09-28T14:23:05.989Z,170
2016-09-28T14:24:15.999Z,170
2016-09-28T14:25:25.687Z,170
2016-09-28T14:26:35.369Z,170
2016-09-28T14:27:45.661Z,170
2016-09-28T14:28:55.962Z,165
2016-09-28T14:30:05.953Z,160
2016-09-28T14:31:16.258Z,160
2016-09-28T14:32:26.550Z,155
2016-09-28T14:33:36.889Z,160
2016-09-28T14:34:47.198Z,150
2016-09-28T14:35:57.500Z,155
2016-09-28T14:37:07.808Z,150
2016-09-28T14:38:18.112Z,150
2016-09-28T14:39:28.097Z,150
2016-09-28T14:40:38.085Z,150
2016-09-28T14:41:48.391Z,150
2016-09-28T14:42:58.704Z,150
2016-09-28T14:44:08.694Z,140
2016-09-28T14:45:19.007Z,140
2016-09-28T14:46:29.327Z,135
2016-09-28T14:47:39.011Z,130
2016-09-28T14:48:49.007Z,130
2016-09-28T14:49:58.999Z,125
2016-09-28T14:51:08.694Z,120
2016-09-28T14:52:19.011Z,120
2016-09-28T14:53:28.704Z,120
2016-09-28T14:54:38.375Z,115
2016-09-28T14:55:48.687Z,115
2016-09-28T14:56:58.697Z,110
2016-09-28T14:58:08.990Z,110
2016-09-28T14:59:18.999Z,105
2016-09-28T15:00:28.984Z,105
2016-09-28T15:01:38.959Z,100
2016-09-28T15:02:49.251Z,100
2016-09-28T15:03:59.535Z,95
2016-09-28T15:05:09.552Z,95
2016-09-28T15:06:19.543Z,95
2016-09-28T15:07:29.558Z,90
2016-09-28T15:08:39.853Z,90
2016-09-28T15:09:50.164Z,90
2016-09-28T15:11:00.158Z,90
2016-09-28T15:12:10.131Z,90
2016-09-28T15:13:20.467Z,85
2016-09-28T15:14:30.765Z,85
2016-09-28T15:15:41.055Z,90
2016-09-28T15:16:51.023Z,85
2016-09-28T15:18:01.021Z,85
2016-09-28T15:19:11.331Z,85
2016-09-28T15:20:21.017Z,85
2016-09-28T15:21:31.332Z,80
2016-09-28T15:22:41.333Z,80
2016-09-28T15:23:50.699Z,80
2016-09-28T15:25:00.713Z,75
2016-09-28T15:26:10.392Z,75
2016-09-28T15:27:20.383Z,75
2016-09-28T15:28:30.369Z,70
2016-09-28T15:29:40.664Z,70
2016-09-28T15:30:50.969Z,70
2016-09-28T15:32:00.348Z,65
2016-09-28T15:33:10.330Z,65
2016-09-28T15:34:20.311Z,65
2016-09-28T15:35:29.992Z,65
2016-09-28T15:36:39.356Z,60
2016-09-28T15:37:49.028Z,60
2016-09-28T15:38:59.330Z,60
2016-09-28T15:40:09.025Z,60
2016-09-28T15:41:19.019Z,55
2016-09-28T15:42:29.017Z,55
2016-09-28T15:43:38.704Z,55
2016-09-28T15:44:49.237Z,55
2016-09-28T15:45:59.540Z,50
2016-09-28T15:47:09.866Z,50
2016-09-28T15:48:20.174Z,50
2016-09-28T15:49:30.158Z,45
2016-09-28T15:50:40.458Z,45
2016-09-28T15:51:50.480Z,45
2016-09-28T15:53:00.494Z,45
2016-09-28T15:54:10.791Z,45
2016-09-28T15:55:21.096Z,40
2016-09-28T15:56:31.425Z,40
2016-09-28T15:57:41.427Z,40
2016-09-28T15:58:51.748Z,35
2016-09-28T16:00:01.726Z,35
2016-09-28T16:01:11.412Z,35
2016-09-28T16:02:21.729Z,35
2016-09-28T16:03:31.407Z,30
2016-09-28T16:04:41.402Z,30
2016-09-28T16:05:51.699Z,30
2016-09-28T16:07:01.705Z,30
2016-09-28T16:08:11.712Z,25
2016-09-28T16:09:21.703Z,25
2016-09-28T16:10:32.014Z,25
2016-09-28T16:11:42.028Z,25
2016-09-28T16:12:52.340Z,20
2016-09-28T16:14:02.331Z,20
2016-09-28T16:15:12.323Z,20
2016-09-28T16:16:22.322Z,20
2016-09-28T16:17:32.324Z,15
2016-09-28T16:18:42.321Z,15
2016-09-28T16:19:52.333Z,15
2016-09-28T16:21:02.640Z,15
2016-09-28T16:22:12.951Z,15
2016-09-28T16:23:22.958Z,10
2016-09-28T16:24:32.956Z,10
2016-09-28T16:25:42.952Z,10
2016-09-28T16:26:53.253Z,10
2016-09-28T16:28:03.240Z,10
2016-09-28T16:29:13.241Z,5
2016-09-28T16:30:23.560Z,5
2016-09-28T16:31:33.280Z,5
2016-09-28T16:32:43.279Z,5
2016-09-28T16:33:52.950Z,5
2016-09-28T16:35:02.639Z,5
2016-09-28T16:36:12.941Z,0
2016-09-28T16:37:22.947Z,0
2016-09-28T16:38:32.645Z,0
2016-09-28T16:39:42.983Z,0
2016-09-28T16:40:52.962Z,0
2016-09-28T16:42:02.640Z,0
2016-09-28T16:43:12.959Z,0
2016-09-28T16:44:23.271Z,0
2016-09-28T16:45:33.581Z,0
2016-09-28T16:46:43.253Z,0
2016-09-28T16:47:53.556Z,0
2016-09-28T16:49:03.254Z,0
2016-09-28T16:50:13.554Z,0
2016-09-28T16:51:23.541Z,0
2016-09-28T16:52:33.851Z,0
2016-09-28T16:53:44.163Z,0
2016-09-28T16:54:54.456Z,0
2016-09-28T16:56:04.446Z,0
2016-09-28T16:57:14.764Z,0
2016-09-28T16:58:25.064Z,0
2016-09-28T16:59:35.071Z,0
2016-09-28T17:00:45.391Z,0